nws-alerts: Checking more than four warning/county codes can delay the loading of your pages. You should use a cron job to get the data.

Nearby METAR Reports

 

KOXC - Oxford/Waterbury, Connecticut, USA
Distance from station: NW 7mi, 11km
Updated: 06/25/2019 3:51am
Partly cloudy
Partly cloudy
 Wind from SE
Wind: SE 5 mph , 7 km/h
Temperature: 66°F , 19°C
Dew Point: 64°F , 18°C
Humidity: 94%
Barometer: 29.87 inHg , 1011.5 hPa
Clouds: Partly cloudy
Visibility: 10 miles , 16 km
Cloud details: Partly cloudy 9000 ft
2019/06/25 07:51 KOXC 250751Z AUTO 14004KT 10SM SCT090 19/18 A2987 RMK AO2 SLP122 T01890183
KHVN - New Haven/Tweed, Connecticut, USA
Distance from station: SE 13mi, 20km
Updated: 06/25/2019 3:53am
Mostly cloudy
Mostly cloudy
 Wind from SE
Wind: SE 5 mph , 7 km/h
Temperature: 70°F , 21°C
Dew Point: 66°F , 19°C
Humidity: 88%
Barometer: 29.85 inHg , 1010.8 hPa
Clouds: Mostly cloudy
Visibility: 8 miles , 13 km
Cloud details: Mostly cloudy 10000 ft
2019/06/25 07:53 KHVN 250753Z AUTO 13004KT 8SM BKN100 21/19 A2985 RMK AO2 SLP109 T02110194
 
KMMK - Meriden, Connecticut, USA
Distance from station: NE 13mi, 21km
Updated: 06/25/2019 3:53am
Partly cloudy
Partly cloudy
 Wind from calm
Wind: Calm
Temperature: 66°F , 19°C
Dew Point: 63°F , 17°C
Humidity: 88%
Barometer: 29.85 inHg , 1010.8 hPa
Clouds: Partly cloudy
Visibility: 10 miles , 16 km
Cloud details: Partly cloudy 10000 ft
2019/06/25 07:53 KMMK 250753Z AUTO 00000KT 10SM SCT100 19/17 A2985 RMK AO2 SLP107 T01890167
KBDR - Bridgeport, Connecticut, USA
Distance from station: SSW 17mi, 27km
Updated: 06/25/2019 4:00am
Mostly cloudy
Mostly cloudy
 Wind from E
Wind: E 5 mph , 7 km/h
Temperature: 68°F , 20°C
Dew Point: 64°F , 18°C
Humidity: 88%
Barometer: 29.84 inHg , 1010.5 hPa
Clouds: Mostly cloudy
Visibility: 8 miles , 13 km
Cloud details: Partly cloudy 900 ft
Mostly cloudy 9500 ft
2019/06/25 08:00 KBDR 250800Z AUTO 08004KT 8SM SCT009 BKN095 20/18 A2984 RMK AO2 T02000183
 
KDXR - Danbury, Connecticut, USA
Distance from station: W 23mi, 38km
Updated: 06/25/2019 3:53am
Few Clouds
Few Clouds
 Wind from varies
Wind: varies 3 mph , 6 km/h
Temperature: 68°F , 20°C
Dew Point: 63°F , 17°C
Humidity: 83%
Barometer: 29.85 inHg , 1010.8 hPa
Clouds: Few Clouds
Visibility: 10 miles , 16 km
Cloud details: Few Clouds 4300 ft
2019/06/25 07:53 KDXR 250753Z AUTO VRB03KT 10SM FEW043 20/17 A2985 RMK AO2 SLP105 T02000172